sensor_id;sensor_type;location;lat;lon;timestamp;temperature;humidity
70244;DHT22;57634;51.136;17.024;2023-04-24T00:01:28;15.40;70.70
70244;DHT22;57634;51.136;17.024;2023-04-24T00:04:30;15.40;70.80
70244;DHT22;57634;51.136;17.024;2023-04-24T00:07:32;15.30;70.90
70244;DHT22;57634;51.136;17.024;2023-04-24T00:10:33;15.30;71.00
70244;DHT22;57634;51.136;17.024;2023-04-24T00:13:35;15.30;71.10
70244;DHT22;57634;51.136;17.024;2023-04-24T00:16:37;15.30;71.20
70244;DHT22;57634;51.136;17.024;2023-04-24T00:19:38;15.20;71.30
70244;DHT22;57634;51.136;17.024;2023-04-24T00:22:39;15.20;71.40
70244;DHT22;57634;51.136;17.024;2023-04-24T00:25:40;15.20;71.40
70244;DHT22;57634;51.136;17.024;2023-04-24T00:28:42;15.20;71.50
70244;DHT22;57634;51.136;17.024;2023-04-24T00:31:44;15.20;71.60
70244;DHT22;57634;51.136;17.024;2023-04-24T00:34:45;15.20;71.50
70244;DHT22;57634;51.136;17.024;2023-04-24T00:37:47;15.20;71.70
70244;DHT22;57634;51.136;17.024;2023-04-24T00:40:49;15.10;71.80
70244;DHT22;57634;51.136;17.024;2023-04-24T00:44:21;15.10;72.10
70244;DHT22;57634;51.136;17.024;2023-04-24T00:47:22;15.00;72.50
70244;DHT22;57634;51.136;17.024;2023-04-24T00:50:24;15.00;72.70
70244;DHT22;57634;51.136;17.024;2023-04-24T00:53:27;15.00;73.10
70244;DHT22;57634;51.136;17.024;2023-04-24T00:56:28;15.00;73.20
70244;DHT22;57634;51.136;17.024;2023-04-24T00:59:29;15.00;73.30
70244;DHT22;57634;51.136;17.024;2023-04-24T01:02:31;15.00;73.20
70244;DHT22;57634;51.136;17.024;2023-04-24T01:08:04;15.00;73.30
70244;DHT22;57634;51.136;17.024;2023-04-24T01:11:05;14.90;73.50
70244;DHT22;57634;51.136;17.024;2023-04-24T01:14:07;14.90;73.70
70244;DHT22;57634;51.136;17.024;2023-04-24T01:17:08;14.80;73.80
70244;DHT22;57634;51.136;17.024;2023-04-24T01:20:10;14.80;74.20
70244;DHT22;57634;51.136;17.024;2023-04-24T01:23:12;14.70;74.40
70244;DHT22;57634;51.136;17.024;2023-04-24T01:26:15;14.70;74.40
70244;DHT22;57634;51.136;17.024;2023-04-24T01:29:16;14.70;74.50
70244;DHT22;57634;51.136;17.024;2023-04-24T01:32:18;14.70;74.70
70244;DHT22;57634;51.136;17.024;2023-04-24T01:35:20;14.60;74.70
70244;DHT22;57634;51.136;17.024;2023-04-24T01:38:21;14.60;74.70
70244;DHT22;57634;51.136;17.024;2023-04-24T01:41:23;14.60;74.70
70244;DHT22;57634;51.136;17.024;2023-04-24T01:44:26;14.60;74.60
70244;DHT22;57634;51.136;17.024;2023-04-24T01:47:53;14.60;74.50
70244;DHT22;57634;51.136;17.024;2023-04-24T01:50:56;14.70;74.50
70244;DHT22;57634;51.136;17.024;2023-04-24T01:53:57;14.70;74.50
70244;DHT22;57634;51.136;17.024;2023-04-24T01:56:59;14.70;74.30
70244;DHT22;57634;51.136;17.024;2023-04-24T02:00:03;14.70;74.20
70244;DHT22;57634;51.136;17.024;2023-04-24T02:03:06;14.70;74.10
70244;DHT22;57634;51.136;17.024;2023-04-24T02:06:08;14.70;74.10
70244;DHT22;57634;51.136;17.024;2023-04-24T02:09:10;14.70;74.00
70244;DHT22;57634;51.136;17.024;2023-04-24T02:12:11;14.70;74.10
70244;DHT22;57634;51.136;17.024;2023-04-24T02:15:12;14.70;74.20
70244;DHT22;57634;51.136;17.024;2023-04-24T02:18:14;14.60;74.20
70244;DHT22;57634;51.136;17.024;2023-04-24T02:21:17;14.60;74.40
70244;DHT22;57634;51.136;17.024;2023-04-24T02:24:18;14.50;74.50
70244;DHT22;57634;51.136;17.024;2023-04-24T02:27:46;14.50;74.70
70244;DHT22;57634;51.136;17.024;2023-04-24T02:30:47;14.40;75.10
70244;DHT22;57634;51.136;17.024;2023-04-24T02:33:48;14.30;75.40
70244;DHT22;57634;51.136;17.024;2023-04-24T02:36:50;14.30;75.80
70244;DHT22;57634;51.136;17.024;2023-04-24T02:39:51;14.30;75.80
70244;DHT22;57634;51.136;17.024;2023-04-24T02:42:53;14.30;75.40
70244;DHT22;57634;51.136;17.024;2023-04-24T02:45:54;14.30;75.30
70244;DHT22;57634;51.136;17.024;2023-04-24T02:48:55;14.30;75.30
70244;DHT22;57634;51.136;17.024;2023-04-24T02:51:56;14.40;75.50
70244;DHT22;57634;51.136;17.024;2023-04-24T02:54:58;14.30;75.40
70244;DHT22;57634;51.136;17.024;2023-04-24T02:57:59;14.30;75.50
70244;DHT22;57634;51.136;17.024;2023-04-24T03:01:00;14.30;75.50
70244;DHT22;57634;51.136;17.024;2023-04-24T03:04:02;14.30;75.60
70244;DHT22;57634;51.136;17.024;2023-04-24T03:07:03;14.30;75.70
70244;DHT22;57634;51.136;17.024;2023-04-24T03:10:34;14.30;75.60
70244;DHT22;57634;51.136;17.024;2023-04-24T03:13:35;14.30;75.90
70244;DHT22;57634;51.136;17.024;2023-04-24T03:16:37;14.20;75.90
70244;DHT22;57634;51.136;17.024;2023-04-24T03:19:39;14.30;76.10
70244;DHT22;57634;51.136;17.024;2023-04-24T03:22:41;14.30;76.00
70244;DHT22;57634;51.136;17.024;2023-04-24T03:25:42;14.40;76.00
70244;DHT22;57634;51.136;17.024;2023-04-24T03:28:44;14.40;75.80
70244;DHT22;57634;51.136;17.024;2023-04-24T03:31:45;14.50;75.90
70244;DHT22;57634;51.136;17.024;2023-04-24T03:34:46;14.50;75.60
70244;DHT22;57634;51.136;17.024;2023-04-24T03:37:48;14.50;75.50
70244;DHT22;57634;51.136;17.024;2023-04-24T03:40:49;14.40;75.50
70244;DHT22;57634;51.136;17.024;2023-04-24T03:43:50;14.50;75.50
70244;DHT22;57634;51.136;17.024;2023-04-24T03:46:52;14.40;75.30
70244;DHT22;57634;51.136;17.024;2023-04-24T03:49:53;14.40;75.20
70244;DHT22;57634;51.136;17.024;2023-04-24T03:53:22;14.50;75.20
70244;DHT22;57634;51.136;17.024;2023-04-24T03:56:23;14.50;75.10
70244;DHT22;57634;51.136;17.024;2023-04-24T03:59:24;14.50;75.10
70244;DHT22;57634;51.136;17.024;2023-04-24T04:02:25;14.50;75.00
70244;DHT22;57634;51.136;17.024;2023-04-24T04:05:27;14.50;74.90
70244;DHT22;57634;51.136;17.024;2023-04-24T04:08:28;14.40;74.70
70244;DHT22;57634;51.136;17.024;2023-04-24T04:11:29;14.40;74.60
70244;DHT22;57634;51.136;17.024;2023-04-24T04:14:31;14.40;74.40
70244;DHT22;57634;51.136;17.024;2023-04-24T04:17:33;14.40;74.30
70244;DHT22;57634;51.136;17.024;2023-04-24T04:20:34;14.40;74.10
70244;DHT22;57634;51.136;17.024;2023-04-24T04:23:35;14.40;74.10
70244;DHT22;57634;51.136;17.024;2023-04-24T04:26:37;14.40;74.00
70244;DHT22;57634;51.136;17.024;2023-04-24T04:29:40;14.30;73.90
70244;DHT22;57634;51.136;17.024;2023-04-24T04:32:41;14.40;74.20
70244;DHT22;57634;51.136;17.024;2023-04-24T04:35:43;14.60;73.90
70244;DHT22;57634;51.136;17.024;2023-04-24T04:39:10;14.80;73.40
70244;DHT22;57634;51.136;17.024;2023-04-24T04:42:11;15.00;72.50
70244;DHT22;57634;51.136;17.024;2023-04-24T04:45:14;15.20;72.10
70244;DHT22;57634;51.136;17.024;2023-04-24T04:48:18;15.50;72.00
70244;DHT22;57634;51.136;17.024;2023-04-24T04:51:19;16.00;71.40
70244;DHT22;57634;51.136;17.024;2023-04-24T04:54:21;16.60;70.20
70244;DHT22;57634;51.136;17.024;2023-04-24T04:57:22;17.20;68.20
70244;DHT22;57634;51.136;17.024;2023-04-24T05:00:23;17.70;66.30
70244;DHT22;57634;51.136;17.024;2023-04-24T05:03:26;17.90;64.10
70244;DHT22;57634;51.136;17.024;2023-04-24T05:06:27;18.10;64.10
70244;DHT22;57634;51.136;17.024;2023-04-24T05:09:28;18.60;62.80
70244;DHT22;57634;51.136;17.024;2023-04-24T05:12:30;19.00;61.30
70244;DHT22;57634;51.136;17.024;2023-04-24T05:15:32;19.30;59.50
70244;DHT22;57634;51.136;17.024;2023-04-24T05:19:01;19.80;58.70
70244;DHT22;57634;51.136;17.024;2023-04-24T05:22:03;20.20;56.20
70244;DHT22;57634;51.136;17.024;2023-04-24T05:25:07;20.30;55.30
70244;DHT22;57634;51.136;17.024;2023-04-24T05:28:09;20.20;54.70
70244;DHT22;57634;51.136;17.024;2023-04-24T05:31:11;20.00;54.70
70244;DHT22;57634;51.136;17.024;2023-04-24T05:34:13;19.50;54.40
70244;DHT22;57634;51.136;17.024;2023-04-24T05:37:17;19.20;55.10
70244;DHT22;57634;51.136;17.024;2023-04-24T05:40:19;18.80;55.40
70244;DHT22;57634;51.136;17.024;2023-04-24T05:43:20;18.60;55.90
70244;DHT22;57634;51.136;17.024;2023-04-24T05:46:21;18.50;56.50
70244;DHT22;57634;51.136;17.024;2023-04-24T05:49:23;18.40;56.80
70244;DHT22;57634;51.136;17.024;2023-04-24T05:52:24;18.60;56.60
70244;DHT22;57634;51.136;17.024;2023-04-24T05:55:25;18.80;55.80
70244;DHT22;57634;51.136;17.024;2023-04-24T05:58:52;19.00;55.20
70244;DHT22;57634;51.136;17.024;2023-04-24T06:01:54;19.00;54.20
70244;DHT22;57634;51.136;17.024;2023-04-24T06:04:55;18.90;54.00
70244;DHT22;57634;51.136;17.024;2023-04-24T06:07:58;18.60;54.20
70244;DHT22;57634;51.136;17.024;2023-04-24T06:10:59;18.40;54.70
70244;DHT22;57634;51.136;17.024;2023-04-24T06:14:00;18.30;55.20
70244;DHT22;57634;51.136;17.024;2023-04-24T06:17:02;18.10;55.50
70244;DHT22;57634;51.136;17.024;2023-04-24T06:20:05;18.00;55.70
70244;DHT22;57634;51.136;17.024;2023-04-24T06:23:08;18.00;55.80
70244;DHT22;57634;51.136;17.024;2023-04-24T06:26:09;18.10;55.50
70244;DHT22;57634;51.136;17.024;2023-04-24T06:29:11;18.10;55.40
70244;DHT22;57634;51.136;17.024;2023-04-24T06:32:12;18.00;55.30
70244;DHT22;57634;51.136;17.024;2023-04-24T06:35:14;18.00;55.40
70244;DHT22;57634;51.136;17.024;2023-04-24T06:38:43;17.90;55.40
70244;DHT22;57634;51.136;17.024;2023-04-24T06:41:44;17.80;55.60
70244;DHT22;57634;51.136;17.024;2023-04-24T06:44:45;17.80;55.90
70244;DHT22;57634;51.136;17.024;2023-04-24T06:47:47;17.70;56.10
70244;DHT22;57634;51.136;17.024;2023-04-24T06:50:48;17.70;56.20
70244;DHT22;57634;51.136;17.024;2023-04-24T06:53:51;17.70;56.40
70244;DHT22;57634;51.136;17.024;2023-04-24T06:56:52;17.60;56.70
70244;DHT22;57634;51.136;17.024;2023-04-24T06:59:53;17.70;56.90
70244;DHT22;57634;51.136;17.024;2023-04-24T07:02:54;17.80;56.90
70244;DHT22;57634;51.136;17.024;2023-04-24T07:05:57;17.90;56.80
70244;DHT22;57634;51.136;17.024;2023-04-24T07:08:59;18.00;56.70
70244;DHT22;57634;51.136;17.024;2023-04-24T07:12:02;18.10;56.60
70244;DHT22;57634;51.136;17.024;2023-04-24T07:15:05;18.20;56.50
70244;DHT22;57634;51.136;17.024;2023-04-24T07:18:35;18.30;56.20
70244;DHT22;57634;51.136;17.024;2023-04-24T07:21:38;18.40;56.20
70244;DHT22;57634;51.136;17.024;2023-04-24T07:24:39;18.50;55.90
70244;DHT22;57634;51.136;17.024;2023-04-24T07:27:40;18.50;56.00
70244;DHT22;57634;51.136;17.024;2023-04-24T07:30:42;18.50;55.90
70244;DHT22;57634;51.136;17.024;2023-04-24T07:33:43;18.50;56.00
70244;DHT22;57634;51.136;17.024;2023-04-24T07:36:45;18.60;56.00
70244;DHT22;57634;51.136;17.024;2023-04-24T07:39:47;18.70;56.10
70244;DHT22;57634;51.136;17.024;2023-04-24T07:42:48;18.80;56.20
70244;DHT22;57634;51.136;17.024;2023-04-24T07:45:51;19.00;56.20
70244;DHT22;57634;51.136;17.024;2023-04-24T07:48:52;19.20;56.10
70244;DHT22;57634;51.136;17.024;2023-04-24T07:51:54;19.40;55.70
70244;DHT22;57634;51.136;17.024;2023-04-24T07:54:55;19.50;55.20
70244;DHT22;57634;51.136;17.024;2023-04-24T07:58:28;19.60;55.20
70244;DHT22;57634;51.136;17.024;2023-04-24T08:01:29;19.70;55.10
70244;DHT22;57634;51.136;17.024;2023-04-24T08:04:30;19.60;55.20
70244;DHT22;57634;51.136;17.024;2023-04-24T08:07:31;19.60;55.60
70244;DHT22;57634;51.136;17.024;2023-04-24T08:10:32;19.60;55.80
70244;DHT22;57634;51.136;17.024;2023-04-24T08:13:33;19.70;55.60
70244;DHT22;57634;51.136;17.024;2023-04-24T08:16:35;19.70;55.30
70244;DHT22;57634;51.136;17.024;2023-04-24T08:19:39;19.70;55.30
70244;DHT22;57634;51.136;17.024;2023-04-24T08:22:48;19.60;55.40
70244;DHT22;57634;51.136;17.024;2023-04-24T08:25:49;19.50;55.40
70244;DHT22;57634;51.136;17.024;2023-04-24T08:28:51;19.30;55.60
70244;DHT22;57634;51.136;17.024;2023-04-24T08:31:52;19.20;56.00
70244;DHT22;57634;51.136;17.024;2023-04-24T08:35:22;19.00;56.10
70244;DHT22;57634;51.136;17.024;2023-04-24T08:38:23;18.90;56.50
70244;DHT22;57634;51.136;17.024;2023-04-24T08:41:27;18.80;56.70
70244;DHT22;57634;51.136;17.024;2023-04-24T08:44:28;18.70;57.10
70244;DHT22;57634;51.136;17.024;2023-04-24T08:47:30;18.60;57.50
70244;DHT22;57634;51.136;17.024;2023-04-24T08:50:33;18.80;57.90
70244;DHT22;57634;51.136;17.024;2023-04-24T08:53:36;18.90;58.20
70244;DHT22;57634;51.136;17.024;2023-04-24T08:56:38;19.20;58.50
70244;DHT22;57634;51.136;17.024;2023-04-24T08:59:42;19.60;58.00
70244;DHT22;57634;51.136;17.024;2023-04-24T09:02:45;20.00;57.60
70244;DHT22;57634;51.136;17.024;2023-04-24T09:05:49;20.30;56.60
70244;DHT22;57634;51.136;17.024;2023-04-24T09:09:19;20.60;56.00
70244;DHT22;57634;51.136;17.024;2023-04-24T09:12:21;20.90;55.40
70244;DHT22;57634;51.136;17.024;2023-04-24T09:15:23;21.00;54.60
70244;DHT22;57634;51.136;17.024;2023-04-24T09:18:26;21.20;54.80
70244;DHT22;57634;51.136;17.024;2023-04-24T09:21:32;21.70;55.60
70244;DHT22;57634;51.136;17.024;2023-04-24T09:24:35;22.50;54.70
70244;DHT22;57634;51.136;17.024;2023-04-24T09:27:36;23.60;53.30
70244;DHT22;57634;51.136;17.024;2023-04-24T09:30:42;24.90;50.50
70244;DHT22;57634;51.136;17.024;2023-04-24T09:33:53;25.90;47.80
70244;DHT22;57634;51.136;17.024;2023-04-24T09:37:28;26.50;45.50
70244;DHT22;57634;51.136;17.024;2023-04-24T09:40:30;26.80;43.00
70244;DHT22;57634;51.136;17.024;2023-04-24T09:43:35;26.90;42.30
70244;DHT22;57634;51.136;17.024;2023-04-24T09:46:36;26.90;41.30
70244;DHT22;57634;51.136;17.024;2023-04-24T09:49:37;26.50;41.00
70244;DHT22;57634;51.136;17.024;2023-04-24T09:52:44;25.90;41.20
70244;DHT22;57634;51.136;17.024;2023-04-24T09:55:45;25.30;42.00
70244;DHT22;57634;51.136;17.024;2023-04-24T09:58:51;24.70;42.60
70244;DHT22;57634;51.136;17.024;2023-04-24T10:01:52;24.20;43.60
70244;DHT22;57634;51.136;17.024;2023-04-24T10:04:56;23.80;44.60
70244;DHT22;57634;51.136;17.024;2023-04-24T10:08:26;23.50;45.10
70244;DHT22;57634;51.136;17.024;2023-04-24T10:11:32;23.00;45.50
70244;DHT22;57634;51.136;17.024;2023-04-24T10:14:34;22.60;46.20
70244;DHT22;57634;51.136;17.024;2023-04-24T10:17:35;22.30;47.10
70244;DHT22;57634;51.136;17.024;2023-04-24T10:20:39;22.10;47.50
70244;DHT22;57634;51.136;17.024;2023-04-24T10:23:41;21.90;48.00
70244;DHT22;57634;51.136;17.024;2023-04-24T10:26:44;21.60;48.40
70244;DHT22;57634;51.136;17.024;2023-04-24T10:29:47;21.30;48.80
70244;DHT22;57634;51.136;17.024;2023-04-24T10:32:49;21.10;49.10
70244;DHT22;57634;51.136;17.024;2023-04-24T10:35:52;20.90;49.80
70244;DHT22;57634;51.136;17.024;2023-04-24T10:42:29;20.90;50.40
70244;DHT22;57634;51.136;17.024;2023-04-24T10:45:31;21.10;50.20
70244;DHT22;57634;51.136;17.024;2023-04-24T11:12:10;20.20;49.80
70244;DHT22;57634;51.136;17.024;2023-04-24T11:15:15;20.10;51.10
70244;DHT22;57634;51.136;17.024;2023-04-24T11:18:23;20.10;51.20
70244;DHT22;57634;51.136;17.024;2023-04-24T11:21:24;20.20;51.30
70244;DHT22;57634;51.136;17.024;2023-04-24T11:24:38;20.30;51.20
70244;DHT22;57634;51.136;17.024;2023-04-24T11:27:44;20.40;51.20
70244;DHT22;57634;51.136;17.024;2023-04-24T11:34:32;20.50;51.10
70244;DHT22;57634;51.136;17.024;2023-04-24T11:37:39;20.50;50.80
70244;DHT22;57634;51.136;17.024;2023-04-24T11:40:41;20.50;51.10
70244;DHT22;57634;51.136;17.024;2023-04-24T11:43:43;20.60;50.90
70244;DHT22;57634;51.136;17.024;2023-04-24T11:46:45;20.70;50.70
70244;DHT22;57634;51.136;17.024;2023-04-24T11:49:46;20.90;50.60
70244;DHT22;57634;51.136;17.024;2023-04-24T12:06:09;21.90;48.40
70244;DHT22;57634;51.136;17.024;2023-04-24T12:09:11;21.90;48.60
70244;DHT22;57634;51.136;17.024;2023-04-24T12:12:41;22.00;48.40
70244;DHT22;57634;51.136;17.024;2023-04-24T12:15:43;21.80;48.10
70244;DHT22;57634;51.136;17.024;2023-04-24T12:18:45;21.60;48.00
70244;DHT22;57634;51.136;17.024;2023-04-24T12:25:02;21.10;48.70
70244;DHT22;57634;51.136;17.024;2023-04-24T12:28:10;20.90;49.10
70244;DHT22;57634;51.136;17.024;2023-04-24T12:31:12;20.60;49.60
70244;DHT22;57634;51.136;17.024;2023-04-24T12:34:20;20.20;50.20
70244;DHT22;57634;51.136;17.024;2023-04-24T12:37:47;20.10;50.80
70244;DHT22;57634;51.136;17.024;2023-04-24T12:44:01;19.60;52.40
70244;DHT22;57634;51.136;17.024;2023-04-24T12:47:03;19.40;53.10
70244;DHT22;57634;51.136;17.024;2023-04-24T12:50:05;19.30;53.90
70244;DHT22;57634;51.136;17.024;2023-04-24T12:53:08;19.30;54.50
70244;DHT22;57634;51.136;17.024;2023-04-24T12:56:09;19.20;55.30
70244;DHT22;57634;51.136;17.024;2023-04-24T12:59:11;19.00;56.00
70244;DHT22;57634;51.136;17.024;2023-04-24T13:02:12;19.00;56.80
70244;DHT22;57634;51.136;17.024;2023-04-24T13:05:14;18.90;57.50
70244;DHT22;57634;51.136;17.024;2023-04-24T13:08:16;18.90;58.00
70244;DHT22;57634;51.136;17.024;2023-04-24T13:11:48;18.80;58.40
70244;DHT22;57634;51.136;17.024;2023-04-24T13:14:49;18.90;58.50
70244;DHT22;57634;51.136;17.024;2023-04-24T13:17:51;18.80;58.00
70244;DHT22;57634;51.136;17.024;2023-04-24T13:20:52;18.70;57.20
70244;DHT22;57634;51.136;17.024;2023-04-24T13:23:54;18.60;56.10
70244;DHT22;57634;51.136;17.024;2023-04-24T13:26:55;18.40;55.40
70244;DHT22;57634;51.136;17.024;2023-04-24T13:29:58;18.20;55.50
70244;DHT22;57634;51.136;17.024;2023-04-24T13:36:04;17.90;55.80
70244;DHT22;57634;51.136;17.024;2023-04-24T13:52:06;17.40;56.70
70244;DHT22;57634;51.136;17.024;2023-04-24T14:05:23;17.20;56.30
70244;DHT22;57634;51.136;17.024;2023-04-24T14:08:24;17.10;56.50
70244;DHT22;57634;51.136;17.024;2023-04-24T14:14:36;17.00;56.10
70244;DHT22;57634;51.136;17.024;2023-04-24T14:27:54;16.70;58.50
70244;DHT22;57634;51.136;17.024;2023-04-24T14:34:00;16.70;58.80
70244;DHT22;57634;51.136;17.024;2023-04-24T14:37:02;16.60;58.90
70244;DHT22;57634;51.136;17.024;2023-04-24T14:40:04;16.60;59.20
70244;DHT22;57634;51.136;17.024;2023-04-24T14:43:33;16.50;59.40
70244;DHT22;57634;51.136;17.024;2023-04-24T15:30:43;15.90;65.00
70244;DHT22;57634;51.136;17.024;2023-04-24T15:55:49;15.80;66.00
70244;DHT22;57634;51.136;17.024;2023-04-24T15:59:26;15.80;66.10
70244;DHT22;57634;51.136;17.024;2023-04-24T16:02:29;15.90;66.10
70244;DHT22;57634;51.136;17.024;2023-04-24T16:05:31;15.90;65.80
70244;DHT22;57634;51.136;17.024;2023-04-24T16:08:32;15.90;65.80
70244;DHT22;57634;51.136;17.024;2023-04-24T16:11:33;16.00;65.90
70244;DHT22;57634;51.136;17.024;2023-04-24T16:14:38;16.00;66.10
70244;DHT22;57634;51.136;17.024;2023-04-24T16:17:39;16.00;66.40
70244;DHT22;57634;51.136;17.024;2023-04-24T16:20:40;16.10;66.40
70244;DHT22;57634;51.136;17.024;2023-04-24T16:23:42;16.10;66.40
70244;DHT22;57634;51.136;17.024;2023-04-24T16:26:43;16.10;66.60
70244;DHT22;57634;51.136;17.024;2023-04-24T16:29:45;16.00;66.50
70244;DHT22;57634;51.136;17.024;2023-04-24T16:32:46;16.00;66.50
70244;DHT22;57634;51.136;17.024;2023-04-24T16:35:49;16.00;66.60
70244;DHT22;57634;51.136;17.024;2023-04-24T16:39:17;16.00;67.00
70244;DHT22;57634;51.136;17.024;2023-04-24T16:42:19;15.90;67.20
70244;DHT22;57634;51.136;17.024;2023-04-24T16:45:20;15.80;67.40
70244;DHT22;57634;51.136;17.024;2023-04-24T16:48:21;15.80;67.80
70244;DHT22;57634;51.136;17.024;2023-04-24T16:51:23;15.80;68.20
70244;DHT22;57634;51.136;17.024;2023-04-24T16:54:24;15.70;68.50
70244;DHT22;57634;51.136;17.024;2023-04-24T16:57:25;15.70;68.80
70244;DHT22;57634;51.136;17.024;2023-04-24T17:00:27;15.70;69.10
70244;DHT22;57634;51.136;17.024;2023-04-24T17:03:28;15.60;69.30
70244;DHT22;57634;51.136;17.024;2023-04-24T17:06:29;15.60;69.40
70244;DHT22;57634;51.136;17.024;2023-04-24T17:09:31;15.60;69.80
70244;DHT22;57634;51.136;17.024;2023-04-24T17:12:32;15.50;70.10
70244;DHT22;57634;51.136;17.024;2023-04-24T17:15:34;15.50;70.30
70244;DHT22;57634;51.136;17.024;2023-04-24T17:18:35;15.40;70.40
70244;DHT22;57634;51.136;17.024;2023-04-24T17:21:37;15.40;70.70
70244;DHT22;57634;51.136;17.024;2023-04-24T17:25:04;15.40;71.00
70244;DHT22;57634;51.136;17.024;2023-04-24T17:28:20;15.30;71.10
70244;DHT22;57634;51.136;17.024;2023-04-24T17:31:21;15.30;71.40
70244;DHT22;57634;51.136;17.024;2023-04-24T17:34:23;15.20;71.40
70244;DHT22;57634;51.136;17.024;2023-04-24T17:37:24;15.20;71.60
70244;DHT22;57634;51.136;17.024;2023-04-24T17:40:26;15.10;71.70
70244;DHT22;57634;51.136;17.024;2023-04-24T17:43:28;15.10;72.10
70244;DHT22;57634;51.136;17.024;2023-04-24T17:46:32;15.10;72.30
70244;DHT22;57634;51.136;17.024;2023-04-24T17:49:35;15.10;72.60
70244;DHT22;57634;51.136;17.024;2023-04-24T17:53:07;15.10;72.80
70244;DHT22;57634;51.136;17.024;2023-04-24T17:56:10;15.10;73.20
70244;DHT22;57634;51.136;17.024;2023-04-24T17:59:11;15.10;73.40
70244;DHT22;57634;51.136;17.024;2023-04-24T18:02:12;15.00;73.50
70244;DHT22;57634;51.136;17.024;2023-04-24T18:05:14;15.00;73.50
70244;DHT22;57634;51.136;17.024;2023-04-24T18:08:15;15.00;73.70
70244;DHT22;57634;51.136;17.024;2023-04-24T18:11:17;15.00;74.00
70244;DHT22;57634;51.136;17.024;2023-04-24T18:14:18;14.90;74.20
70244;DHT22;57634;51.136;17.024;2023-04-24T18:17:19;14.90;74.40
70244;DHT22;57634;51.136;17.024;2023-04-24T18:20:21;14.80;74.50
70244;DHT22;57634;51.136;17.024;2023-04-24T18:23:22;14.70;74.40
70244;DHT22;57634;51.136;17.024;2023-04-24T18:26:24;14.70;74.50
70244;DHT22;57634;51.136;17.024;2023-04-24T18:29:25;14.70;74.30
70244;DHT22;57634;51.136;17.024;2023-04-24T18:32:26;14.60;74.20
70244;DHT22;57634;51.136;17.024;2023-04-24T18:35:56;14.60;74.30
70244;DHT22;57634;51.136;17.024;2023-04-24T18:38:58;14.60;74.30
70244;DHT22;57634;51.136;17.024;2023-04-24T18:41:59;14.60;74.20
70244;DHT22;57634;51.136;17.024;2023-04-24T18:45:01;14.60;74.30
70244;DHT22;57634;51.136;17.024;2023-04-24T18:48:04;14.70;74.30
70244;DHT22;57634;51.136;17.024;2023-04-24T18:51:05;14.70;74.30
70244;DHT22;57634;51.136;17.024;2023-04-24T18:54:08;14.70;74.30
70244;DHT22;57634;51.136;17.024;2023-04-24T18:57:09;14.70;74.20
70244;DHT22;57634;51.136;17.024;2023-04-24T19:00:11;14.70;74.00
70244;DHT22;57634;51.136;17.024;2023-04-24T19:03:12;14.70;73.80
70244;DHT22;57634;51.136;17.024;2023-04-24T19:06:13;14.70;73.70
70244;DHT22;57634;51.136;17.024;2023-04-24T19:09:14;14.70;73.80
70244;DHT22;57634;51.136;17.024;2023-04-24T19:12:16;14.80;73.90
70244;DHT22;57634;51.136;17.024;2023-04-24T19:15:17;14.80;73.90
70244;DHT22;57634;51.136;17.024;2023-04-24T19:18:44;14.80;73.90
70244;DHT22;57634;51.136;17.024;2023-04-24T19:21:46;14.70;73.90
70244;DHT22;57634;51.136;17.024;2023-04-24T19:24:47;14.70;74.00
70244;DHT22;57634;51.136;17.024;2023-04-24T19:27:49;14.60;74.10
70244;DHT22;57634;51.136;17.024;2023-04-24T19:30:50;14.60;74.30
70244;DHT22;57634;51.136;17.024;2023-04-24T19:33:52;14.50;74.50
70244;DHT22;57634;51.136;17.024;2023-04-24T19:36:53;14.50;74.60
70244;DHT22;57634;51.136;17.024;2023-04-24T19:39:54;14.40;74.70
70244;DHT22;57634;51.136;17.024;2023-04-24T19:42:56;14.40;74.90
70244;DHT22;57634;51.136;17.024;2023-04-24T19:45:57;14.40;75.10
70244;DHT22;57634;51.136;17.024;2023-04-24T19:48:58;14.40;75.30
70244;DHT22;57634;51.136;17.024;2023-04-24T19:51:59;14.30;75.20
70244;DHT22;57634;51.136;17.024;2023-04-24T19:55:00;14.30;75.30
70244;DHT22;57634;51.136;17.024;2023-04-24T19:58:01;14.30;75.20
70244;DHT22;57634;51.136;17.024;2023-04-24T20:01:03;14.20;75.20
70244;DHT22;57634;51.136;17.024;2023-04-24T20:04:31;14.20;75.20
70244;DHT22;57634;51.136;17.024;2023-04-24T20:07:33;14.10;75.30
70244;DHT22;57634;51.136;17.024;2023-04-24T20:10:35;14.10;75.30
70244;DHT22;57634;51.136;17.024;2023-04-24T20:13:37;14.10;75.50
70244;DHT22;57634;51.136;17.024;2023-04-24T20:16:38;14.00;75.50
70244;DHT22;57634;51.136;17.024;2023-04-24T20:22:57;14.00;75.60
70244;DHT22;57634;51.136;17.024;2023-04-24T20:25:58;14.00;75.60
70244;DHT22;57634;51.136;17.024;2023-04-24T20:29:02;14.00;75.60
70244;DHT22;57634;51.136;17.024;2023-04-24T20:32:03;14.00;75.60
70244;DHT22;57634;51.136;17.024;2023-04-24T20:35:31;14.00;75.60
